Time;durP1;ratioP1;P1;durP2;ratioP2;P2;SDS_P1;SDS_P2;PMS_P1;PMS_P2;Temp;Humidity;BMP_temperature;BMP_pressure;BME280_temperature;BME280_humidity;BME280_pressure;Samples;Min_cycle;Max_cycle;Signal;HPM_P1;HPM_P2
2023/04/27 00:00:03;;;;;;;7.38;5.90;;;;;;;8.09;55.46;101969.53;5082969;28;20043;-64
2023/04/27 00:02:28;;;;;;;9.88;6.28;;;;;;;8.08;55.53;101976.13;5088947;28;20448;-64
2023/04/27 00:04:53;;;;;;;7.68;5.50;;;;;;;8.02;56.08;101971.44;5085855;28;20031;-64
2023/04/27 00:07:19;;;;;;;9.75;5.95;;;;;;;7.96;56.16;101976.94;5085537;28;20081;-64
2023/04/27 00:09:44;;;;;;;10.82;5.63;;;;;;;7.92;55.84;101975.66;5089620;28;20031;-64
2023/04/27 00:12:09;;;;;;;9.38;6.00;;;;;;;7.89;56.19;101976.91;5088415;28;20054;-64
2023/04/27 00:14:35;;;;;;;7.50;5.72;;;;;;;7.88;56.00;101966.94;5053165;28;1044173;-62
2023/04/27 00:17:00;;;;;;;7.85;6.05;;;;;;;7.86;55.92;101966.31;5088494;28;20124;-64
2023/04/27 00:19:25;;;;;;;10.15;6.15;;;;;;;7.84;55.97;101969.25;5077015;28;20061;-64
2023/04/27 00:21:51;;;;;;;9.70;6.22;;;;;;;7.84;56.09;101974.78;5074790;28;20028;-65
2023/04/27 00:24:16;;;;;;;7.28;5.30;;;;;;;7.78;56.18;101978.38;5084764;28;20097;-64
2023/04/27 00:26:41;;;;;;;7.90;6.07;;;;;;;7.78;55.98;101971.97;5081606;28;20020;-64
2023/04/27 00:29:06;;;;;;;10.13;6.05;;;;;;;7.73;56.65;101978.13;5091016;28;20020;-64
2023/04/27 00:31:32;;;;;;;8.27;6.00;;;;;;;7.74;56.41;101967.94;5090505;28;20101;-64
2023/04/27 00:33:57;;;;;;;7.32;6.38;;;;;;;7.69;56.28;101985.13;5087138;28;20032;-64
2023/04/27 00:36:22;;;;;;;9.52;6.55;;;;;;;7.62;56.76;101976.84;5074991;28;20024;-64
2023/04/27 00:38:48;;;;;;;8.98;6.20;;;;;;;7.57;57.38;101968.28;5070613;28;20052;-64
2023/04/27 00:41:13;;;;;;;9.40;6.07;;;;;;;7.56;56.66;101983.19;5069474;28;20546;-64
2023/04/27 00:43:43;;;;;;;7.68;6.70;;;;;;;7.51;57.46;101969.13;5088964;28;20070;-64
2023/04/27 00:46:09;;;;;;;9.93;6.43;;;;;;;7.49;57.22;101971.25;5073341;28;20479;-64
2023/04/27 00:48:35;;;;;;;9.23;6.13;;;;;;;7.45;57.73;101975.47;5068116;28;20062;-64
2023/04/27 00:51:01;;;;;;;8.82;5.97;;;;;;;7.43;57.20;101972.06;5082981;28;20043;-64
2023/04/27 00:53:26;;;;;;;10.38;6.25;;;;;;;7.43;57.26;101968.44;5085428;28;20028;-64
2023/04/27 00:55:52;;;;;;;9.82;6.03;;;;;;;7.37;57.86;101967.34;5088660;28;20434;-63
2023/04/27 00:58:17;;;;;;;9.75;6.45;;;;;;;7.34;57.01;101967.75;5075832;28;20476;-63
2023/04/27 01:00:42;;;;;;;8.63;6.53;;;;;;;7.31;57.35;101970.94;5069427;28;20070;-63
2023/04/27 01:03:08;;;;;;;7.35;5.55;;;;;;;7.31;57.27;101969.03;5079657;28;20390;-64
2023/04/27 01:05:36;;;;;;;7.43;6.43;;;;;;;7.27;57.71;101969.63;5089510;28;20094;-64
2023/04/27 01:08:02;;;;;;;8.60;6.55;;;;;;;7.25;58.05;101974.53;5079485;28;20533;-64
2023/04/27 01:10:27;;;;;;;10.07;6.75;;;;;;;7.26;58.05;101970.69;5068942;28;20032;-64
2023/04/27 01:12:52;;;;;;;9.13;6.10;;;;;;;7.23;58.15;101963.69;5073089;28;20029;-64
2023/04/27 01:15:17;;;;;;;8.13;6.32;;;;;;;7.20;57.37;101963.25;5078234;28;20058;-64
2023/04/27 01:17:43;;;;;;;10.27;6.05;;;;;;;7.19;57.51;101967.91;5089902;28;20024;-63
2023/04/27 01:20:08;;;;;;;8.98;6.40;;;;;;;7.14;57.50;101968.50;5093551;28;20074;-63
2023/04/27 01:22:34;;;;;;;10.40;7.18;;;;;;;7.11;58.43;101973.56;5085638;28;20088;-64
2023/04/27 01:24:59;;;;;;;11.38;6.05;;;;;;;7.09;57.98;101975.69;5081030;28;20358;-64
2023/04/27 01:27:25;;;;;;;9.30;6.55;;;;;;;7.05;58.09;101983.53;5073511;28;20438;-64
2023/04/27 01:29:50;;;;;;;6.80;5.95;;;;;;;7.03;58.46;101979.25;5071537;28;20029;-64
2023/04/27 01:32:16;;;;;;;6.68;6.07;;;;;;;6.99;58.42;101973.28;5077978;28;20037;-64
2023/04/27 01:34:41;;;;;;;8.73;6.50;;;;;;;6.98;58.11;101977.09;5073046;28;20036;-64
2023/04/27 01:37:06;;;;;;;9.88;5.90;;;;;;;6.98;58.06;101984.53;5072624;28;20491;-64
2023/04/27 01:39:32;;;;;;;6.55;5.93;;;;;;;6.97;58.17;101977.31;5072719;28;20032;-63
2023/04/27 01:41:57;;;;;;;8.38;5.68;;;;;;;6.98;58.16;101971.59;5079139;28;20024;-64
2023/04/27 01:44:23;;;;;;;10.63;5.95;;;;;;;6.97;58.01;101969.88;5091763;28;20028;-64
2023/04/27 01:46:49;;;;;;;9.10;5.60;;;;;;;6.91;58.27;101970.69;5077805;28;20109;-64
2023/04/27 01:49:14;;;;;;;7.05;6.35;;;;;;;6.88;58.53;101968.34;5074107;28;20074;-64
2023/04/27 01:51:40;;;;;;;7.82;5.97;;;;;;;6.85;58.29;101971.50;5092048;28;20418;-63
2023/04/27 01:54:05;;;;;;;8.45;6.18;;;;;;;6.79;58.75;101964.00;5091342;28;20052;-63
2023/04/27 01:56:30;;;;;;;8.82;6.20;;;;;;;6.70;58.66;101956.97;5089007;28;20119;-64
2023/04/27 01:58:56;;;;;;;7.30;6.15;;;;;;;6.74;57.98;101961.00;5083254;28;20036;-64
2023/04/27 02:01:21;;;;;;;6.95;6.28;;;;;;;6.68;58.48;101970.97;5072819;28;20554;-64
2023/04/27 02:03:46;;;;;;;10.73;6.40;;;;;;;6.65;58.67;101963.09;5072358;28;20116;-63
2023/04/27 02:06:12;;;;;;;10.00;6.55;;;;;;;6.62;58.78;101975.34;5074109;28;20036;-63
2023/04/27 02:08:37;;;;;;;8.25;6.43;;;;;;;6.60;58.53;101958.16;5093074;28;20032;-63
2023/04/27 02:11:02;;;;;;;7.00;6.03;;;;;;;6.57;59.27;101958.56;5091217;28;20470;-63
2023/04/27 02:13:28;;;;;;;8.40;6.20;;;;;;;6.58;58.87;101956.66;5091576;28;20036;-63
2023/04/27 02:15:54;;;;;;;7.00;6.32;;;;;;;6.56;59.33;101958.75;5090731;28;20047;-63
2023/04/27 02:18:20;;;;;;;9.80;7.28;;;;;;;6.54;58.96;101955.34;5089803;28;20031;-63
2023/04/27 02:20:45;;;;;;;9.38;6.40;;;;;;;6.55;58.66;101952.38;5089555;28;20426;-63
2023/04/27 02:23:11;;;;;;;8.13;6.45;;;;;;;6.51;58.98;101955.72;5071705;28;20073;-63
2023/04/27 02:25:37;;;;;;;10.55;6.13;;;;;;;6.48;58.48;101950.59;5070339;28;20063;-64
2023/04/27 02:28:02;;;;;;;7.20;6.30;;;;;;;6.46;58.85;101947.22;5091636;28;20032;-63
2023/04/27 02:30:29;;;;;;;8.45;6.40;;;;;;;6.41;58.41;101939.53;5092246;28;20043;-63
2023/04/27 02:32:54;;;;;;;7.45;6.30;;;;;;;6.38;58.68;101939.94;5084280;28;20040;-64
2023/04/27 02:35:19;;;;;;;9.45;6.55;;;;;;;6.35;58.97;101935.66;5089276;28;20030;-65
2023/04/27 02:37:45;;;;;;;9.80;6.50;;;;;;;6.33;58.67;101942.44;5089106;28;20463;-64
2023/04/27 02:40:11;;;;;;;8.98;6.20;;;;;;;6.27;58.87;101937.72;5083971;28;20131;-64
2023/04/27 02:42:37;;;;;;;10.38;6.15;;;;;;;6.27;59.10;101935.81;5091437;28;20087;-64
2023/04/27 02:45:05;;;;;;;8.30;6.90;;;;;;;6.21;59.26;101946.75;5090061;28;20051;-64
2023/04/27 02:47:30;;;;;;;10.77;6.70;;;;;;;6.21;58.90;101941.25;5087336;28;20021;-64
2023/04/27 02:49:56;;;;;;;10.35;6.47;;;;;;;6.19;58.80;101940.59;5091853;28;20047;-63
2023/04/27 02:52:21;;;;;;;8.88;6.32;;;;;;;6.16;59.24;101947.34;5087380;28;20020;-63
2023/04/27 02:54:46;;;;;;;10.00;6.25;;;;;;;6.11;58.96;101945.19;5085707;28;20032;-64
2023/04/27 02:57:12;;;;;;;8.82;6.82;;;;;;;6.13;58.76;101950.50;5079290;28;20024;-63
2023/04/27 02:59:37;;;;;;;8.57;6.97;;;;;;;6.10;58.87;101951.78;5089670;28;20054;-64
2023/04/27 03:02:02;;;;;;;9.90;6.45;;;;;;;6.10;58.95;101948.16;5073455;28;20037;-64
2023/04/27 03:04:28;;;;;;;9.60;6.80;;;;;;;6.07;59.48;101946.63;5070666;28;20058;-64
2023/04/27 03:06:54;;;;;;;9.93;6.78;;;;;;;6.11;59.26;101944.34;5085208;28;20043;-63
2023/04/27 03:09:19;;;;;;;12.10;6.20;;;;;;;6.09;58.89;101943.69;5090267;28;20111;-64
2023/04/27 03:11:44;;;;;;;7.95;6.53;;;;;;;6.08;59.19;101934.56;5091360;28;20024;-64
2023/04/27 03:14:11;;;;;;;13.20;7.05;;;;;;;6.04;59.34;101943.41;5075758;28;20092;-64
2023/04/27 03:16:36;;;;;;;10.52;6.65;;;;;;;6.04;59.61;101941.50;5082641;28;20093;-64
2023/04/27 03:19:02;;;;;;;11.32;7.50;;;;;;;6.01;59.11;101949.31;5072804;28;20324;-65
2023/04/27 03:21:27;;;;;;;15.50;7.10;;;;;;;5.95;59.27;101944.63;5085934;28;20044;-65
2023/04/27 03:23:53;;;;;;;10.80;6.88;;;;;;;5.97;59.22;101953.53;5076929;28;20104;-65
2023/04/27 03:26:19;;;;;;;14.48;7.50;;;;;;;5.91;59.54;101950.47;5091155;28;20032;-65
2023/04/27 03:28:44;;;;;;;10.68;7.45;;;;;;;5.87;59.40;101957.44;5087425;28;20050;-62
2023/04/27 03:31:12;;;;;;;9.52;7.07;;;;;;;5.89;59.39;101951.72;5071338;28;20024;-62
2023/04/27 03:33:37;;;;;;;13.82;8.10;;;;;;;5.85;59.47;101956.75;5088228;28;20451;-63
2023/04/27 03:36:05;;;;;;;10.35;6.50;;;;;;;5.87;59.40;101953.81;5088344;28;20057;-64
2023/04/27 03:38:31;;;;;;;10.18;7.63;;;;;;;5.83;59.28;101966.28;5088786;28;20053;-63
2023/04/27 03:40:56;;;;;;;9.73;7.43;;;;;;;5.82;59.91;101961.81;5090411;28;20383;-64
2023/04/27 03:43:22;;;;;;;11.32;7.53;;;;;;;5.83;59.79;101958.00;5085341;28;20024;-64
2023/04/27 03:45:47;;;;;;;16.15;7.47;;;;;;;5.77;59.86;101964.28;5090446;28;20027;-64
2023/04/27 03:48:14;;;;;;;11.45;7.80;;;;;;;5.78;59.84;101966.03;5087638;28;20032;-64
2023/04/27 03:50:40;;;;;;;11.18;7.28;;;;;;;5.73;59.55;101962.97;5078822;28;20386;-64
2023/04/27 03:53:06;;;;;;;11.23;7.78;;;;;;;5.75;59.76;101955.38;5069586;28;20124;-64
2023/04/27 03:55:31;;;;;;;9.00;7.45;;;;;;;5.72;59.77;101961.28;5086870;28;20114;-63
2023/04/27 03:57:56;;;;;;;12.82;7.70;;;;;;;5.72;60.04;101964.88;5089440;28;20032;-64
2023/04/27 04:00:22;;;;;;;10.35;7.72;;;;;;;5.70;59.97;101957.84;5085643;28;20472;-64
2023/04/27 04:02:47;;;;;;;9.73;7.47;;;;;;;5.69;59.97;101968.00;5070369;28;20102;-64
2023/04/27 04:05:14;;;;;;;10.27;8.07;;;;;;;5.65;59.81;101969.44;5068863;28;20103;-64
2023/04/27 04:07:40;;;;;;;11.50;7.78;;;;;;;5.67;60.02;101964.63;5075087;28;20016;-64
2023/04/27 04:10:06;;;;;;;12.73;7.97;;;;;;;5.63;60.07;101958.63;5090345;28;20036;-63
2023/04/27 04:12:32;;;;;;;10.25;8.25;;;;;;;5.65;59.90;101961.19;5089562;28;20028;-63
2023/04/27 04:14:57;;;;;;;13.13;8.20;;;;;;;5.66;60.12;101952.75;5086525;28;20048;-63
2023/04/27 04:17:22;;;;;;;14.30;7.95;;;;;;;5.63;59.84;101968.81;5072130;28;20494;-64
2023/04/27 04:19:48;;;;;;;15.60;7.78;;;;;;;5.62;59.91;101962.44;5070868;28;20039;-64
2023/04/27 04:22:13;;;;;;;13.45;8.13;;;;;;;5.62;60.16;101967.09;5086189;28;20072;-64
2023/04/27 04:24:39;;;;;;;10.88;7.90;;;;;;;5.58;60.40;101974.91;5068740;28;20032;-63
2023/04/27 04:27:04;;;;;;;8.93;7.65;;;;;;;5.56;60.42;101976.97;5069623;28;20020;-64
2023/04/27 04:29:29;;;;;;;14.88;8.10;;;;;;;5.54;60.62;101975.44;5069000;28;20029;-63
2023/04/27 04:31:55;;;;;;;11.73;7.70;;;;;;;5.53;60.88;101979.25;5081657;28;20036;-64
2023/04/27 04:34:21;;;;;;;10.68;7.78;;;;;;;5.54;60.65;101979.09;5089901;28;20873;-64
2023/04/27 04:36:46;;;;;;;12.52;8.90;;;;;;;5.52;60.82;101983.06;5090097;28;20145;-64
2023/04/27 04:39:12;;;;;;;9.85;7.88;;;;;;;5.50;60.33;101986.03;5074686;28;20828;-63
2023/04/27 04:41:37;;;;;;;9.23;7.78;;;;;;;5.47;60.56;101986.41;5083594;28;20093;-64
2023/04/27 04:44:03;;;;;;;10.00;8.30;;;;;;;5.50;60.73;101994.28;5076347;28;20036;-65
2023/04/27 04:46:29;;;;;;;13.95;8.52;;;;;;;5.49;61.11;102000.81;5078714;28;20032;-63
2023/04/27 04:48:54;;;;;;;12.55;7.88;;;;;;;5.48;61.02;101992.75;5090146;28;20083;-64
2023/04/27 04:51:20;;;;;;;12.25;8.15;;;;;;;5.49;61.09;101995.31;5088392;28;20111;-64
2023/04/27 04:53:45;;;;;;;9.90;7.68;;;;;;;5.50;61.38;101998.91;5084516;28;20475;-64
2023/04/27 04:56:12;;;;;;;12.80;7.93;;;;;;;5.49;61.34;101995.31;5089646;28;20032;-64
2023/04/27 04:58:38;;;;;;;10.55;8.02;;;;;;;5.54;61.70;101995.59;5086689;28;20028;-64
2023/04/27 05:01:03;;;;;;;12.93;8.07;;;;;;;5.57;61.59;101997.94;5081325;28;21698;-64
2023/04/27 05:03:29;;;;;;;14.35;8.40;;;;;;;5.57;61.53;102002.59;5080653;28;20085;-63
2023/04/27 05:05:54;;;;;;;13.43;8.88;;;;;;;5.58;61.86;101996.03;5093489;28;20103;-63
2023/04/27 05:08:19;;;;;;;13.10;8.60;;;;;;;5.62;62.20;102003.75;5092871;28;20044;-64
2023/04/27 05:10:52;;;;;;;12.23;8.60;;;;;;;5.69;62.02;102003.81;5093434;28;20032;-64
2023/04/27 05:13:17;;;;;;;12.80;8.57;;;;;;;5.75;61.91;102003.06;5093213;28;20040;-64
2023/04/27 05:15:42;;;;;;;11.98;8.52;;;;;;;5.79;61.55;102004.38;5087208;28;20117;-65
2023/04/27 05:18:08;;;;;;;12.93;8.52;;;;;;;5.83;61.30;102004.84;5078281;28;20028;-64
2023/04/27 05:20:34;;;;;;;13.40;9.23;;;;;;;5.83;61.89;102013.97;5076745;28;20043;-64
2023/04/27 05:23:00;;;;;;;11.90;8.52;;;;;;;5.87;61.92;102009.78;5088149;28;20032;-64
2023/04/27 05:25:26;;;;;;;12.80;8.52;;;;;;;5.92;61.75;102003.72;5091334;28;20023;-64
2023/04/27 05:27:51;;;;;;;13.38;8.27;;;;;;;5.96;61.21;102009.69;5073748;28;20066;-64
2023/04/27 05:30:16;;;;;;;11.32;8.45;;;;;;;5.98;61.25;102010.38;5092817;28;20119;-65
2023/04/27 05:32:41;;;;;;;10.45;8.68;;;;;;;6.00;61.80;101999.97;5092870;28;20180;-65
2023/04/27 05:35:07;;;;;;;14.50;8.50;;;;;;;5.97;61.79;102000.38;5085469;28;20039;-63
2023/04/27 05:37:32;;;;;;;13.43;9.02;;;;;;;6.03;61.53;102005.13;5072123;28;20464;-63
2023/04/27 05:39:58;;;;;;;10.02;8.30;;;;;;;6.01;61.69;102015.47;5092891;28;20209;-62
2023/04/27 05:42:23;;;;;;;11.93;8.43;;;;;;;6.01;61.57;102009.94;5078623;28;20036;-63
2023/04/27 05:44:48;;;;;;;11.27;8.85;;;;;;;6.05;61.51;102020.41;5088684;28;20403;-64
2023/04/27 05:47:14;;;;;;;13.68;9.35;;;;;;;6.07;61.67;102015.56;5090816;28;20103;-64
2023/04/27 05:49:39;;;;;;;13.85;9.02;;;;;;;6.14;61.99;102022.00;5072038;28;20020;-64
2023/04/27 05:52:04;;;;;;;15.60;8.40;;;;;;;6.18;61.55;102021.63;5076258;28;20081;-64
2023/04/27 05:54:30;;;;;;;13.15;9.13;;;;;;;6.24;61.27;102024.41;5073319;28;20058;-64
2023/04/27 05:56:55;;;;;;;12.10;8.65;;;;;;;6.33;60.92;102025.16;5084532;28;20943;-64
2023/04/27 05:59:20;;;;;;;13.68;8.60;;;;;;;6.43;61.43;102024.81;5068811;28;20037;-63
2023/04/27 06:01:46;;;;;;;10.70;8.23;;;;;;;6.49;61.46;102024.06;5073587;28;20082;-63
2023/04/27 06:04:11;;;;;;;11.70;7.68;;;;;;;6.54;61.40;102014.13;5068740;28;20031;-64
2023/04/27 06:06:37;;;;;;;9.95;7.60;;;;;;;6.60;60.73;102027.13;5068834;28;20306;-64
2023/04/27 06:09:02;;;;;;;11.70;7.55;;;;;;;6.70;59.54;102028.69;5071467;28;20075;-64
2023/04/27 06:11:28;;;;;;;13.77;7.75;;;;;;;6.79;60.10;102028.34;5080480;28;20047;-63
2023/04/27 06:13:53;;;;;;;11.75;7.20;;;;;;;6.96;59.63;102014.28;5088891;28;20071;-64
2023/04/27 06:16:19;;;;;;;9.43;7.72;;;;;;;7.04;59.58;102014.13;5087245;28;20047;-63
2023/04/27 06:18:45;;;;;;;11.10;7.90;;;;;;;7.16;59.40;102012.50;5073835;28;20024;-64
2023/04/27 06:21:10;;;;;;;15.05;7.00;;;;;;;7.26;58.01;102010.19;5087253;28;20493;-64
2023/04/27 06:23:35;;;;;;;11.02;7.70;;;;;;;7.34;58.12;102012.81;5084749;28;20482;-64
2023/04/27 06:26:00;;;;;;;9.93;7.40;;;;;;;7.42;57.69;102009.03;5086568;28;20027;-62
2023/04/27 06:28:26;;;;;;;10.77;7.13;;;;;;;7.55;57.74;102002.75;5074213;28;20077;-62
2023/04/27 06:30:52;;;;;;;16.00;7.43;;;;;;;7.66;57.23;102004.03;5068926;28;20035;-62
2023/04/27 06:33:17;;;;;;;10.95;7.50;;;;;;;7.77;57.04;101997.94;5075444;28;20582;-62
2023/04/27 06:35:43;;;;;;;12.40;7.75;;;;;;;7.85;56.83;102004.13;5080283;28;20123;-63
2023/04/27 06:38:09;;;;;;;13.65;7.18;;;;;;;7.96;56.19;102013.72;5087819;28;20020;-62
2023/04/27 06:40:35;;;;;;;11.48;7.43;;;;;;;8.04;56.38;102010.78;5078419;28;20380;-64
2023/04/27 06:43:01;;;;;;;9.48;6.95;;;;;;;8.08;55.91;102019.50;5072354;28;20036;-64
2023/04/27 06:45:26;;;;;;;12.75;7.65;;;;;;;8.11;56.21;102013.56;5068899;28;20040;-62
2023/04/27 06:47:51;;;;;;;10.38;7.95;;;;;;;8.20;55.70;102011.47;5071003;28;20117;-62
2023/04/27 06:50:17;;;;;;;11.75;7.68;;;;;;;8.27;56.34;102012.34;5071135;28;20024;-62
2023/04/27 06:52:42;;;;;;;13.40;8.10;;;;;;;8.39;56.05;102015.38;5069266;28;20107;-62
2023/04/27 06:55:08;;;;;;;15.35;8.52;;;;;;;8.50;56.35;102007.28;5080946;28;20035;-65
2023/04/27 06:57:33;;;;;;;14.52;8.60;;;;;;;8.59;55.34;102005.16;5069479;28;20020;-65
2023/04/27 06:59:59;;;;;;;13.73;11.38;;;;;;;8.70;55.16;102006.47;5079668;28;20016;-63
2023/04/27 07:02:24;;;;;;;12.23;8.93;;;;;;;8.77;55.02;102012.84;5081842;28;20024;-64
2023/04/27 07:04:50;;;;;;;13.88;8.75;;;;;;;8.79;54.30;102003.25;5069652;28;20036;-64
2023/04/27 07:07:15;;;;;;;11.93;8.23;;;;;;;8.83;54.60;102006.44;5069575;28;20313;-65
2023/04/27 07:09:40;;;;;;;11.10;9.20;;;;;;;8.85;54.85;101993.25;5068861;28;20035;-63
2023/04/27 07:12:07;;;;;;;12.02;8.35;;;;;;;8.91;54.29;101997.94;5069522;28;20038;-65
2023/04/27 07:14:32;;;;;;;11.65;8.07;;;;;;;8.93;54.83;101994.97;5069591;28;20025;-64
2023/04/27 07:16:58;;;;;;;11.82;8.95;;;;;;;9.00;54.36;101990.25;5050303;28;20059;-63
2023/04/27 07:19:23;;;;;;;12.57;8.00;;;;;;;9.09;54.51;101998.13;5052500;28;20112;-63
2023/04/27 07:21:49;;;;;;;12.50;8.48;;;;;;;9.14;54.12;101993.84;5053675;28;20039;-60
2023/04/27 07:24:14;;;;;;;11.70;7.90;;;;;;;9.17;53.80;101996.19;5048578;28;20058;-65
2023/04/27 07:26:40;;;;;;;12.40;8.13;;;;;;;9.22;53.83;101994.47;5064663;28;20047;-65
2023/04/27 07:29:05;;;;;;;11.80;7.63;;;;;;;9.26;53.29;101998.50;5062741;28;20137;-65
2023/04/27 07:31:32;;;;;;;13.95;8.13;;;;;;;9.35;53.96;101993.59;5070442;28;20033;-64
2023/04/27 07:33:59;;;;;;;11.85;8.38;;;;;;;9.44;53.00;102008.06;5054016;28;20029;-67
2023/04/27 07:36:26;;;;;;;12.90;9.02;;;;;;;9.58;53.47;102002.25;5051809;28;20045;-65
2023/04/27 07:38:51;;;;;;;14.32;8.35;;;;;;;9.71;53.14;102003.31;5066968;28;20044;-65
2023/04/27 07:41:19;;;;;;;14.50;8.52;;;;;;;9.72;52.22;101993.91;5059541;28;20124;-65
2023/04/27 07:43:44;;;;;;;14.23;8.93;;;;;;;9.72;52.26;101996.69;5046851;28;20031;-65
2023/04/27 07:46:10;;;;;;;15.52;9.32;;;;;;;9.82;52.45;102002.59;5049897;28;20028;-62
2023/04/27 07:48:36;;;;;;;12.85;8.40;;;;;;;9.89;52.82;102000.63;5050890;28;20460;-67
2023/04/27 07:51:01;;;;;;;13.88;9.68;;;;;;;9.90;51.13;102002.34;5058924;28;20091;-63
2023/04/27 07:53:26;;;;;;;17.30;9.35;;;;;;;9.88;50.85;102007.25;5052185;28;20472;-63
2023/04/27 07:55:52;;;;;;;13.18;8.20;;;;;;;9.90;51.22;101994.00;5054173;28;20071;-63
2023/04/27 07:58:18;;;;;;;13.52;8.63;;;;;;;9.90;50.49;101999.56;5051380;28;20029;-63
2023/04/27 08:00:44;;;;;;;14.13;8.80;;;;;;;9.89;50.35;101995.09;5058314;28;20029;-63
2023/04/27 08:03:09;;;;;;;12.40;7.88;;;;;;;9.92;50.76;101993.81;5057690;28;20043;-63
2023/04/27 08:05:35;;;;;;;14.70;8.63;;;;;;;9.98;50.28;101996.56;5052262;28;20033;-63
2023/04/27 08:08:00;;;;;;;12.38;8.13;;;;;;;10.04;49.99;102001.22;5057381;28;20025;-63
2023/04/27 08:10:26;;;;;;;15.18;8.15;;;;;;;10.14;50.05;101997.09;5048382;28;20368;-62
2023/04/27 08:12:51;;;;;;;11.63;7.20;;;;;;;10.24;48.89;101997.47;5060234;28;20028;-63
2023/04/27 08:15:16;;;;;;;11.55;7.38;;;;;;;10.34;49.32;102003.44;5056382;28;20060;-62
2023/04/27 08:17:42;;;;;;;9.88;7.15;;;;;;;10.38;48.84;102001.06;5069025;28;20082;-64
2023/04/27 08:20:11;;;;;;;10.27;7.60;;;;;;;10.45;48.89;102005.50;5077842;28;20057;-63
2023/04/27 08:22:38;;;;;;;11.65;7.57;;;;;;;10.51;49.24;102009.28;5082964;28;20753;-63
2023/04/27 08:25:03;;;;;;;11.90;7.07;;;;;;;10.53;48.39;102005.22;5077006;28;20107;-63
2023/04/27 08:27:29;;;;;;;9.95;7.07;;;;;;;10.61;48.22;102003.22;5081577;28;20111;-62
2023/04/27 08:29:55;;;;;;;11.93;7.35;;;;;;;10.64;47.70;101988.88;5088694;28;20391;-63
2023/04/27 08:32:20;;;;;;;11.07;6.57;;;;;;;10.68;47.54;101990.13;5071270;28;20032;-62
2023/04/27 08:34:45;;;;;;;10.68;6.60;;;;;;;10.72;47.62;101972.78;5073191;28;20060;-63
2023/04/27 08:37:11;;;;;;;10.48;6.13;;;;;;;10.78;47.39;101971.03;5073650;28;20033;-63
2023/04/27 08:39:36;;;;;;;11.93;5.65;;;;;;;10.83;45.67;101960.09;5080768;28;20411;-64
2023/04/27 08:42:10;;;;;;;8.48;6.03;;;;;;;10.92;47.10;101960.66;5091276;28;20035;-63
2023/04/27 08:44:40;;;;;;;12.60;5.93;;;;;;;10.96;46.61;101962.72;5087341;28;20020;-63
2023/04/27 08:47:09;;;;;;;8.88;5.88;;;;;;;11.02;45.87;101959.06;5071571;28;20032;-63
2023/04/27 08:49:37;;;;;;;15.43;6.43;;;;;;;11.07;45.89;101969.47;5088889;28;20134;-64
2023/04/27 08:52:03;;;;;;;11.07;5.70;;;;;;;11.11;45.47;101972.66;5075575;28;20032;-64
2023/04/27 08:54:29;;;;;;;8.82;5.50;;;;;;;11.15;45.78;101966.41;5072714;28;20036;-64
2023/04/27 08:56:55;;;;;;;8.52;4.70;;;;;;;11.17;44.81;101971.75;5072695;28;20041;-62
2023/04/27 08:59:21;;;;;;;7.68;6.03;;;;;;;11.16;44.70;101972.81;5080841;28;20573;-61
2023/04/27 09:01:47;;;;;;;10.73;6.32;;;;;;;11.18;44.87;101970.66;5073084;28;20032;-61
2023/04/27 09:04:13;;;;;;;8.15;6.03;;;;;;;11.21;45.12;101962.72;5074130;28;20107;-61
2023/04/27 09:06:39;;;;;;;7.97;5.55;;;;;;;11.28;44.73;101959.88;5081498;28;20120;-60
2023/04/27 09:09:06;;;;;;;7.07;5.50;;;;;;;11.38;44.71;101967.66;5093316;28;20124;-62
2023/04/27 09:11:33;;;;;;;8.30;5.47;;;;;;;11.54;44.63;101964.25;5088895;28;20032;-62
2023/04/27 09:14:00;;;;;;;11.68;5.80;;;;;;;11.59;43.94;101952.44;5082411;28;20120;-59
2023/04/27 09:16:28;;;;;;;7.60;5.35;;;;;;;11.60;42.98;101968.06;5079251;28;20044;-59
2023/04/27 09:18:55;;;;;;;5.88;4.07;;;;;;;11.59;41.40;101950.50;5087933;28;20055;-59
2023/04/27 09:21:27;;;;;;;6.68;4.82;;;;;;;11.64;42.96;101961.78;5090458;28;20028;-59
2023/04/27 09:23:54;;;;;;;8.80;5.63;;;;;;;11.67;42.69;101954.88;5076384;28;20098;-59
2023/04/27 09:26:21;;;;;;;7.28;4.97;;;;;;;11.67;42.20;101963.22;5091037;28;20023;-60
2023/04/27 09:28:49;;;;;;;8.77;5.13;;;;;;;11.73;42.50;101956.75;5070675;28;20032;-60
2023/04/27 09:31:15;;;;;;;8.90;5.30;;;;;;;11.78;42.76;101945.75;5088599;28;20043;-62
2023/04/27 09:33:43;;;;;;;6.32;3.70;;;;;;;12.20;47.76;101955.03;5090168;28;20387;-60
2023/04/27 09:36:08;;;;;;;5.03;3.30;;;;;;;12.66;49.28;101941.47;5084074;28;20028;-59
2023/04/27 09:38:34;;;;;;;6.90;4.40;;;;;;;12.98;46.64;101948.38;5071831;28;20033;-60
2023/04/27 09:41:00;;;;;;;6.75;5.00;;;;;;;12.92;42.04;101943.75;5077434;28;20023;-60
2023/04/27 09:43:27;;;;;;;7.35;5.22;;;;;;;12.94;40.34;101946.31;5074172;28;20032;-60
2023/04/27 09:45:53;;;;;;;10.73;5.68;;;;;;;12.76;38.74;101950.06;5072137;28;20046;-60
2023/04/27 09:48:21;;;;;;;9.10;5.30;;;;;;;12.62;40.03;101951.41;5075311;28;20093;-60
2023/04/27 09:50:49;;;;;;;6.70;4.82;;;;;;;12.54;40.05;101947.03;5089403;28;20060;-60
2023/04/27 09:53:18;;;;;;;8.38;5.30;;;;;;;12.49;40.28;101942.16;5082145;28;20048;-60
2023/04/27 09:56:07;;;;;;;8.88;5.18;;;;;;;12.50;40.85;101938.31;5075790;28;20042;-59
2023/04/27 09:58:51;;;;;;;8.27;4.57;;;;;;;12.47;40.75;101940.72;5091468;28;20075;-59
2023/04/27 10:01:25;;;;;;;7.22;5.43;;;;;;;12.43;39.96;101934.75;5092182;28;20067;-60
2023/04/27 10:04:09;;;;;;;7.68;5.55;;;;;;;12.46;41.04;101925.09;5083757;28;20058;-61
2023/04/27 10:07:01;;;;;;;15.30;5.85;;;;;;;12.46;41.35;101930.66;5079186;28;20040;-62
2023/04/27 10:09:32;;;;;;;7.22;5.05;;;;;;;12.39;40.75;101933.56;5076344;28;20028;-58
2023/04/27 10:12:25;;;;;;;6.78;4.95;;;;;;;12.35;40.44;101934.28;5071041;28;20032;-58
2023/04/27 10:14:57;;;;;;;8.02;5.15;;;;;;;12.35;38.80;101934.28;5077761;28;20626;-62
2023/04/27 10:17:34;;;;;;;8.93;5.63;;;;;;;12.32;39.87;101930.03;5091062;28;20020;-60
2023/04/27 10:20:06;;;;;;;8.13;4.95;;;;;;;12.32;39.63;101927.25;5079906;28;20028;-61
2023/04/27 10:22:38;;;;;;;10.20;5.53;;;;;;;12.30;38.76;101932.22;5078920;28;20032;-62
2023/04/27 10:25:15;;;;;;;;;;;;;;;12.36;40.42;101942.38;5082418;28;20116;-61
2023/04/27 10:27:41;;;;;;;8.45;5.32;;;;;;;12.35;39.10;101946.25;5071556;28;20367;-59
2023/04/27 10:30:11;;;;;;;8.80;5.45;;;;;;;12.34;38.82;101947.34;5071675;28;20031;-59
2023/04/27 10:32:36;;;;;;;7.85;5.55;;;;;;;12.36;39.19;101931.22;5078012;28;20150;-61
2023/04/27 10:35:06;;;;;;;9.75;6.00;;;;;;;12.40;38.92;101934.41;5087505;28;20126;-60
2023/04/27 10:37:41;;;;;;;7.25;5.68;;;;;;;12.42;39.38;101927.50;5069943;28;20107;-60
2023/04/27 10:40:09;;;;;;;9.18;5.68;;;;;;;12.44;38.16;101932.81;5073969;28;20050;-61
2023/04/27 10:42:35;;;;;;;6.55;5.20;;;;;;;12.46;36.86;101939.03;5078148;28;20510;-61
2023/04/27 10:45:00;;;;;;;8.98;5.40;;;;;;;12.48;37.78;101929.31;5075630;28;20062;-61
2023/04/27 10:47:37;;;;;;;6.28;5.30;;;;;;;12.53;37.31;101917.47;5079680;28;20032;-62
2023/04/27 10:50:04;;;;;;;10.05;5.70;;;;;;;12.52;37.02;101919.41;5082814;28;20527;-62
2023/04/27 10:52:30;;;;;;;6.60;5.22;;;;;;;12.57;36.91;101915.03;5089599;28;20061;-62
2023/04/27 10:54:55;;;;;;;6.80;5.30;;;;;;;12.62;37.05;101906.84;5076510;28;20105;-61
2023/04/27 10:57:21;;;;;;;8.43;5.45;;;;;;;12.64;36.17;101913.00;5069935;28;20498;-61
2023/04/27 10:59:52;;;;;;;8.18;5.70;;;;;;;12.64;35.92;101913.00;5071887;28;20441;-62
2023/04/27 11:02:28;;;;;;;7.45;5.88;;;;;;;12.62;37.50;101906.84;5074982;28;20035;-64
2023/04/27 11:04:55;;;;;;;7.95;4.90;;;;;;;12.90;39.52;101906.94;5077154;28;20043;-61
2023/04/27 11:07:25;;;;;;;11.65;6.00;;;;;;;12.89;37.07;101891.31;5073866;28;20099;-62
2023/04/27 11:09:50;;;;;;;9.18;6.00;;;;;;;12.89;36.19;101898.81;5086404;28;20158;-62
2023/04/27 11:12:16;;;;;;;8.43;6.50;;;;;;;12.86;36.22;101888.19;5071074;28;20115;-64
2023/04/27 11:14:41;;;;;;;8.85;6.60;;;;;;;12.83;37.01;101886.72;5069877;28;20032;-63
2023/04/27 11:17:06;;;;;;;8.68;6.13;;;;;;;12.86;37.01;101882.59;5071357;28;20437;-63
2023/04/27 11:19:32;;;;;;;10.55;6.88;;;;;;;12.83;36.39;101877.50;5069796;28;20545;-62
2023/04/27 11:22:05;;;;;;;9.57;6.72;;;;;;;12.88;37.85;101885.97;5068827;28;20044;-61